Time;durP1;ratioP1;P1;durP2;ratioP2;P2;SDS_P1;SDS_P2;PMS_P1;PMS_P2;Temp;Humidity;BMP_temperature;BMP_pressure;BME280_temperature;BME280_humidity;BME280_pressure;Samples;Min_cycle;Max_cycle;Signal;HPM_P1;HPM_P2
2023/06/04 00:00:14;;;;;;;;;;;;;;;28.56;33.31;96257.34;4965582;28;20020;-44
2023/06/04 00:02:42;;;;;;;;;;;;;;;29.40;32.33;96250.84;4965961;28;19958;-47
2023/06/04 00:05:10;;;;;;;;;;;;;;;28.60;33.16;96250.31;4967764;28;19969;-45
2023/06/04 00:07:38;;;;;;;;;;;;;;;28.98;32.87;96243.69;4960379;28;19965;-45
2023/06/04 00:10:07;;;;;;;;;;;;;;;27.98;34.07;96246.41;4960800;28;19968;-47
2023/06/04 00:12:35;;;;;;;;;;;;;;;28.97;32.97;96236.59;4961221;28;19969;-43
2023/06/04 00:15:05;;;;;;;;;;;;;;;29.19;32.74;96233.72;4958072;28;19964;-47
2023/06/04 00:17:33;;;;;;;;;;;;;;;29.32;32.56;96241.34;4962933;28;19969;-45
2023/06/04 00:20:01;;;;;;;;;;;;;;;29.37;32.18;96239.72;4957466;28;19960;-45
2023/06/04 00:22:29;;;;;;;;;;;;;;;29.31;32.68;96242.41;4960720;28;19961;-46
2023/06/04 00:24:57;;;;;;;;;;;;;;;29.63;31.68;96235.97;4966942;28;20373;-48
2023/06/04 00:27:25;;;;;;;;;;;;;;;29.65;31.46;96239.22;4961975;28;20367;-44
2023/06/04 00:29:53;;;;;;;;;;;;;;;29.24;32.24;96236.41;4957361;28;20362;-49
2023/06/04 00:32:23;;;;;;;;;;;;;;;28.80;32.98;96244.13;4967178;28;19957;-55
2023/06/04 00:34:51;;;;;;;;;;;;;;;29.21;32.37;96238.84;4964753;28;19994;-50
2023/06/04 00:37:20;;;;;;;;;;;;;;;29.33;32.36;96244.88;4963317;28;19957;-48
2023/06/04 00:39:48;;;;;;;;;;;;;;;29.18;32.26;96236.69;4964047;28;20072;-51
2023/06/04 00:42:16;;;;;;;;;;;;;;;29.01;32.61;96245.03;4965808;28;20000;-43
2023/06/04 00:44:45;;;;;;;;;;;;;;;28.94;32.41;96247.16;4960219;28;19954;-50
2023/06/04 00:47:13;;;;;;;;;;;;;;;29.05;32.57;96243.44;4962398;28;19957;-54
2023/06/04 00:49:43;;;;;;;;;;;;;;;28.77;32.84;96241.97;4968465;28;19972;-46
2023/06/04 00:52:11;;;;;;;;;;;;;;;28.71;32.89;96243.03;4966440;28;19953;-52
2023/06/04 00:54:40;;;;;;;;;;;;;;;28.24;33.27;96238.41;4963911;28;19961;-53
2023/06/04 00:57:08;;;;;;;;;;;;;;;29.16;32.01;96241.56;4967123;28;19975;-47
2023/06/04 00:59:37;;;;;;;;;;;;;;;29.03;31.84;96237.47;4967190;28;19954;-46
2023/06/04 01:02:06;;;;;;;;;;;;;;;28.40;32.91;96248.31;4963106;28;19965;-46
2023/06/04 01:04:35;;;;;;;;;;;;;;;28.30;33.31;96250.94;4963789;28;19974;-45
2023/06/04 01:07:05;;;;;;;;;;;;;;;28.98;32.58;96240.97;4961034;28;19950;-42
2023/06/04 01:09:33;;;;;;;;;;;;;;;29.00;32.40;96238.81;4956063;28;20725;-51
2023/06/04 01:12:04;;;;;;;;;;;;;;;28.94;31.84;96237.16;4960163;28;19965;-45
2023/06/04 01:14:33;;;;;;;;;;;;;;;28.48;32.26;96242.38;4954894;28;19969;-50
2023/06/04 01:17:02;;;;;;;;;;;;;;;28.55;32.77;96240.25;4958661;28;20398;-44
2023/06/04 01:19:40;;;;;;;;;;;;;;;28.76;31.97;96241.13;4958957;28;19973;-48
2023/06/04 01:22:16;;;;;;;;;;;;;;;28.86;32.25;96235.75;4955164;28;19962;-53
2023/06/04 01:24:44;;;;;;;;;;;;;;;28.72;32.61;96247.38;4962497;28;19964;-44
2023/06/04 01:27:12;;;;;;;;;;;;;;;28.55;32.62;96248.38;4959928;28;19965;-43
2023/06/04 01:29:40;;;;;;;;;;;;;;;28.11;32.68;96254.09;4956510;28;19953;-47
2023/06/04 01:32:08;;;;;;;;;;;;;;;28.38;32.95;96253.13;4958615;28;20712;-45
2023/06/04 01:34:44;;;;;;;;;;;;;;;28.50;32.61;96242.94;4961956;28;19961;-45
2023/06/04 01:37:16;;;;;;;;;;;;;;;28.04;33.16;96253.47;4957537;28;20429;-47
2023/06/04 01:39:44;;;;;;;;;;;;;;;28.62;32.10;96246.25;4957849;28;19976;-46
2023/06/04 01:42:12;;;;;;;;;;;;;;;28.04;32.88;96253.47;4953458;28;19972;-45
2023/06/04 01:44:40;;;;;;;;;;;;;;;28.22;32.75;96252.25;4950921;28;20381;-51
2023/06/04 01:47:08;;;;;;;;;;;;;;;28.27;32.90;96252.28;4961157;28;19977;-45
2023/06/04 01:49:37;;;;;;;;;;;;;;;28.43;32.58;96247.78;4952534;28;19966;-47
2023/06/04 01:52:06;;;;;;;;;;;;;;;28.47;32.37;96248.88;4957569;28;19954;-50
2023/06/04 01:54:37;;;;;;;;;;;;;;;28.36;32.60;96264.28;4958021;28;19957;-48
2023/06/04 01:57:06;;;;;;;;;;;;;;;28.47;32.22;96256.22;4958357;28;19965;-43
2023/06/04 01:59:34;;;;;;;;;;;;;;;28.06;33.00;96256.75;4953231;28;19961;-49
2023/06/04 02:02:02;;;;;;;;;;;;;;;27.61;33.62;96265.31;4959943;28;19957;-47
2023/06/04 02:04:31;;;;;;;;;;;;;;;28.18;32.78;96259.25;4962060;28;19961;-46
2023/06/04 02:06:59;;;;;;;;;;;;;;;28.05;32.95;96257.84;4964209;28;20406;-45
2023/06/04 02:09:27;;;;;;;;;;;;;;;28.18;32.93;96256.53;4951204;28;19953;-53
2023/06/04 02:11:57;;;;;;;;;;;;;;;28.02;32.95;96263.78;4959684;28;19960;-44
2023/06/04 02:14:25;;;;;;;;;;;;;;;28.22;32.93;96262.25;4953241;28;19954;-46
2023/06/04 02:16:53;;;;;;;;;;;;;;;28.35;32.32;96264.50;4960388;28;20461;-45
2023/06/04 02:19:22;;;;;;;;;;;;;;;28.16;32.29;96258.72;4961884;28;19957;-45
2023/06/04 02:21:50;;;;;;;;;;;;;;;27.85;32.68;96263.09;4954221;28;20040;-47
2023/06/04 02:24:18;;;;;;;;;;;;;;;27.76;33.04;96270.88;4959707;28;20512;-47
2023/06/04 02:26:46;;;;;;;;;;;;;;;27.58;33.22;96269.34;4957499;28;20406;-43
2023/06/04 02:29:15;;;;;;;;;;;;;;;27.11;34.10;96272.63;4954918;28;19953;-47
2023/06/04 02:31:43;;;;;;;;;;;;;;;27.08;34.23;96273.16;4956140;28;19957;-46
2023/06/04 02:34:11;;;;;;;;;;;;;;;26.68;34.65;96281.59;4962950;28;20011;-49
2023/06/04 02:36:40;;;;;;;;;;;;;;;27.54;33.38;96275.53;4959406;28;19929;-46
2023/06/04 02:39:08;;;;;;;;;;;;;;;27.71;33.19;96278.94;4952711;28;20288;-47
2023/06/04 02:41:36;;;;;;;;;;;;;;;27.32;33.64;96265.56;4955104;28;19962;-50
2023/06/04 02:44:04;;;;;;;;;;;;;;;27.72;33.27;96268.91;4962766;28;19975;-47
2023/06/04 02:46:33;;;;;;;;;;;;;;;27.66;33.38;96268.06;4955888;28;19964;-46
2023/06/04 02:49:01;;;;;;;;;;;;;;;27.66;33.56;96263.44;4953012;28;19981;-45
2023/06/04 02:51:29;;;;;;;;;;;;;;;27.78;33.18;96266.03;4960651;28;19962;-53
2023/06/04 02:53:57;;;;;;;;;;;;;;;27.79;33.08;96273.06;4961460;28;19961;-44
2023/06/04 02:56:26;;;;;;;;;;;;;;;27.70;33.27;96271.88;4964349;28;20402;-44
2023/06/04 02:58:55;;;;;;;;;;;;;;;27.34;33.83;96279.69;4971968;28;20540;-44
2023/06/04 03:01:23;;;;;;;;;;;;;;;26.97;34.33;96271.38;4958767;28;19961;-48
2023/06/04 03:03:53;;;;;;;;;;;;;;;27.28;33.97;96277.97;4953945;28;20425;-43
2023/06/04 03:06:21;;;;;;;;;;;;;;;27.03;34.28;96280.41;4960942;28;20418;-48
2023/06/04 03:08:50;;;;;;;;;;;;;;;26.84;34.52;96288.84;4956729;28;19970;-46
2023/06/04 03:11:19;;;;;;;;;;;;;;;26.74;34.75;96286.03;4954481;28;19977;-45
2023/06/04 03:13:47;;;;;;;;;;;;;;;26.81;34.54;96285.84;4955982;28;19973;-51
2023/06/04 03:16:15;;;;;;;;;;;;;;;26.35;35.13;96296.81;4964254;28;19961;-49
2023/06/04 03:18:44;;;;;;;;;;;;;;;26.27;35.33;96305.34;4963173;28;20493;-49
2023/06/04 03:21:13;;;;;;;;;;;;;;;26.75;34.41;96298.47;4956766;28;20347;-48
2023/06/04 03:23:41;;;;;;;;;;;;;;;27.18;33.85;96299.53;4956615;28;20363;-48
2023/06/04 03:26:12;;;;;;;;;;;;;;;26.97;34.06;96304.69;4964746;28;20398;-50
2023/06/04 03:28:41;;;;;;;;;;;;;;;26.42;35.16;96310.97;4958366;28;19957;-45
2023/06/04 03:31:09;;;;;;;;;;;;;;;25.89;36.31;96309.63;4960328;28;19961;-44
2023/06/04 03:33:38;;;;;;;;;;;;;;;26.69;34.80;96305.69;4964241;28;19957;-46
2023/06/04 03:36:06;;;;;;;;;;;;;;;26.39;35.27;96313.34;4965794;28;20425;-47
2023/06/04 03:38:35;;;;;;;;;;;;;;;26.95;34.65;96308.72;4963346;28;19957;-46
2023/06/04 03:41:03;;;;;;;;;;;;;;;25.99;35.83;96311.69;4964590;28;19957;-43
2023/06/04 03:43:31;;;;;;;;;;;;;;;26.54;35.52;96315.50;4961026;28;19957;-44
2023/06/04 03:45:59;;;;;;;;;;;;;;;27.20;34.58;96309.03;4962523;28;19977;-46
2023/06/04 03:48:27;;;;;;;;;;;;;;;27.55;33.82;96310.50;4956656;28;19957;-46
2023/06/04 03:50:55;;;;;;;;;;;;;;;27.79;33.26;96308.31;4954992;28;19991;-48
2023/06/04 03:53:23;;;;;;;;;;;;;;;28.03;32.99;96318.81;4966565;28;19961;-47
2023/06/04 03:55:53;;;;;;;;;;;;;;;28.17;32.99;96314.56;4957795;28;19980;-42
2023/06/04 03:58:21;;;;;;;;;;;;;;;29.04;31.98;96315.97;4959982;28;20411;-45
2023/06/04 04:00:49;;;;;;;;;;;;;;;29.37;31.53;96307.63;4961556;28;19961;-47
2023/06/04 04:03:17;;;;;;;;;;;;;;;29.45;31.35;96307.09;4955983;28;19962;-46
2023/06/04 04:05:45;;;;;;;;;;;;;;;30.57;29.30;96306.34;4958181;28;19965;-45
2023/06/04 04:08:16;;;;;;;;;;;;;;;29.86;29.69;96310.72;4959824;28;19980;-48
2023/06/04 04:10:44;;;;;;;;;;;;;;;30.80;29.43;96308.50;4956758;28;19988;-45
2023/06/04 04:13:14;;;;;;;;;;;;;;;31.53;28.91;96307.09;4961532;28;19949;-46
2023/06/04 04:15:42;;;;;;;;;;;;;;;31.43;28.34;96310.69;4965220;28;19996;-51
2023/06/04 04:18:10;;;;;;;;;;;;;;;32.15;27.03;96311.81;4963108;28;19972;-49
2023/06/04 04:20:38;;;;;;;;;;;;;;;32.45;26.71;96311.84;4953351;28;19965;-46
2023/06/04 04:23:08;;;;;;;;;;;;;;;31.89;27.01;96315.84;4958686;28;19966;-50
2023/06/04 04:25:36;;;;;;;;;;;;;;;32.11;26.69;96316.22;4957639;28;19962;-51
2023/06/04 04:28:06;;;;;;;;;;;;;;;31.84;26.70;96311.22;4959299;28;19968;-48
2023/06/04 04:30:36;;;;;;;;;;;;;;;32.00;26.48;96316.56;4962761;28;20006;-53
2023/06/04 04:33:04;;;;;;;;;;;;;;;31.75;26.70;96314.81;4965347;28;19978;-52
2023/06/04 04:35:34;;;;;;;;;;;;;;;32.21;26.23;96323.50;4957374;28;20438;-51
2023/06/04 04:38:03;;;;;;;;;;;;;;;32.52;25.99;96326.78;4959862;28;19953;-49
2023/06/04 04:40:31;;;;;;;;;;;;;;;32.98;25.62;96333.72;4962197;28;20371;-53
2023/06/04 04:42:59;;;;;;;;;;;;;;;32.85;25.75;96333.25;4962496;28;19965;-52
2023/06/04 04:45:28;;;;;;;;;;;;;;;33.09;25.64;96336.00;4957599;28;19969;-49
2023/06/04 04:47:57;;;;;;;;;;;;;;;33.22;25.37;96336.41;4964642;28;19973;-50
2023/06/04 04:50:25;;;;;;;;;;;;;;;33.81;24.65;96335.09;4969744;28;19965;-47
2023/06/04 04:52:53;;;;;;;;;;;;;;;32.23;26.11;96342.31;4964229;28;19957;-48
2023/06/04 04:55:21;;;;;;;;;;;;;;;31.96;26.38;96343.59;4970898;28;19977;-46
2023/06/04 04:57:49;;;;;;;;;;;;;;;32.05;26.60;96343.84;4962425;28;19961;-49
2023/06/04 05:00:18;;;;;;;;;;;;;;;32.43;26.06;96341.34;4959455;28;20378;-45
2023/06/04 05:02:46;;;;;;;;;;;;;;;33.19;25.91;96346.00;4958681;28;19965;-47
2023/06/04 05:05:15;;;;;;;;;;;;;;;32.08;26.24;96351.44;4962839;28;19964;-50
2023/06/04 05:07:43;;;;;;;;;;;;;;;32.03;26.22;96357.75;4958775;28;19965;-51
2023/06/04 05:10:12;;;;;;;;;;;;;;;32.24;26.29;96354.84;4967028;28;20398;-50
2023/06/04 05:12:40;;;;;;;;;;;;;;;32.98;25.27;96359.09;4961599;28;19961;-49
2023/06/04 05:15:12;;;;;;;;;;;;;;;32.58;25.95;96357.56;4962958;28;19969;-50
2023/06/04 05:17:40;;;;;;;;;;;;;;;33.18;25.04;96354.50;4966818;28;19956;-52
2023/06/04 05:20:11;;;;;;;;;;;;;;;33.28;25.12;96363.41;4957135;28;19993;-51
2023/06/04 05:22:42;;;;;;;;;;;;;;;32.51;25.86;96374.28;4959517;28;19961;-53
2023/06/04 05:25:10;;;;;;;;;;;;;;;31.76;26.53;96374.53;4955109;28;19980;-52
2023/06/04 05:27:38;;;;;;;;;;;;;;;31.44;26.76;96369.53;4961484;28;19965;-52
2023/06/04 05:30:07;;;;;;;;;;;;;;;32.42;26.27;96373.31;4961973;28;19968;-46
2023/06/04 05:32:40;;;;;;;;;;;;;;;32.18;26.46;96375.13;4961303;28;19961;-46
2023/06/04 05:35:09;;;;;;;;;;;;;;;32.06;26.10;96367.28;4958602;28;19965;-50
2023/06/04 05:37:40;;;;;;;;;;;;;;;32.03;26.84;96370.56;4958306;28;19984;-46
2023/06/04 05:40:10;;;;;;;;;;;;;;;33.05;25.89;96366.97;4957876;28;19962;-47
2023/06/04 05:42:38;;;;;;;;;;;;;;;32.35;26.21;96373.59;4963967;28;19965;-51
2023/06/04 05:45:08;;;;;;;;;;;;;;;32.78;25.53;96368.31;4964942;28;19961;-51
2023/06/04 05:47:36;;;;;;;;;;;;;;;32.17;26.33;96370.75;4963302;28;19972;-51
2023/06/04 05:50:05;;;;;;;;;;;;;;;31.39;26.89;96384.00;4958314;28;19970;-48
2023/06/04 05:52:34;;;;;;;;;;;;;;;32.73;25.64;96375.75;4957295;28;20387;-50
2023/06/04 05:55:02;;;;;;;;;;;;;;;31.66;26.59;96380.06;4962988;28;19973;-50
2023/06/04 05:57:31;;;;;;;;;;;;;;;32.25;26.35;96384.59;4979251;28;19949;-48
2023/06/04 05:59:59;;;;;;;;;;;;;;;30.91;27.29;96390.97;4958737;28;19964;-50
2023/06/04 06:02:27;;;;;;;;;;;;;;;31.03;27.04;96391.47;4961720;28;19957;-49
2023/06/04 06:04:56;;;;;;;;;;;;;;;30.49;27.53;96384.75;4958700;28;19969;-51
2023/06/04 06:07:24;;;;;;;;;;;;;;;30.72;27.12;96396.13;4978931;28;19976;-48
2023/06/04 06:09:52;;;;;;;;;;;;;;;29.15;28.91;96406.44;4953852;28;20050;-46
2023/06/04 06:12:20;;;;;;;;;;;;;;;30.36;27.94;96387.19;4960315;28;19958;-47
2023/06/04 06:14:49;;;;;;;;;;;;;;;31.64;26.99;96396.69;4963539;28;19962;-53
2023/06/04 06:17:17;;;;;;;;;;;;;;;28.96;29.11;96403.28;4968772;28;19953;-50
2023/06/04 06:19:45;;;;;;;;;;;;;;;31.29;27.11;96396.84;4958585;28;19968;-52
2023/06/04 06:22:14;;;;;;;;;;;;;;;30.69;27.14;96402.94;4962523;28;19970;-50
2023/06/04 06:24:42;;;;;;;;;;;;;;;30.93;27.81;96405.91;4957271;28;19968;-49
2023/06/04 06:27:10;;;;;;;;;;;;;;;31.22;27.49;96397.13;4957094;28;19962;-54
2023/06/04 06:29:39;;;;;;;;;;;;;;;31.13;26.95;96398.78;4966439;28;19929;-48
2023/06/04 06:32:08;;;;;;;;;;;;;;;31.43;27.09;96401.44;4963305;28;19961;-46
2023/06/04 06:34:37;;;;;;;;;;;;;;;29.30;29.11;96409.19;4960823;28;19965;-48
2023/06/04 06:37:07;;;;;;;;;;;;;;;29.72;28.73;96413.72;4962091;28;19970;-46
2023/06/04 06:39:35;;;;;;;;;;;;;;;30.89;27.91;96412.19;4961317;28;19980;-46
2023/06/04 06:42:03;;;;;;;;;;;;;;;30.55;28.20;96410.03;4958771;28;20654;-48
2023/06/04 06:44:31;;;;;;;;;;;;;;;30.97;27.33;96412.47;4963775;28;20391;-47
2023/06/04 06:46:59;;;;;;;;;;;;;;;30.26;28.23;96415.22;4961927;28;19972;-51
2023/06/04 06:49:29;;;;;;;;;;;;;;;30.42;28.06;96419.56;4958953;28;20358;-49
2023/06/04 06:51:57;;;;;;;;;;;;;;;30.37;28.26;96416.03;4974768;28;19966;-51
2023/06/04 06:54:25;;;;;;;;;;;;;;;32.07;26.53;96412.56;4960520;28;19970;-51
2023/06/04 06:56:53;;;;;;;;;;;;;;;31.13;26.87;96417.84;4961797;28;20441;-53
2023/06/04 06:59:21;;;;;;;;;;;;;;;31.77;26.45;96411.63;4957022;28;19958;-50
2023/06/04 07:01:50;;;;;;;;;;;;;;;31.57;27.05;96411.72;4959602;28;20429;-52
2023/06/04 07:04:18;;;;;;;;;;;;;;;31.80;27.02;96418.44;4956468;28;20625;-50
2023/06/04 07:06:48;;;;;;;;;;;;;;;31.71;26.62;96415.47;4953479;28;19961;-47
2023/06/04 07:09:17;;;;;;;;;;;;;;;32.45;26.66;96412.84;4961639;28;19960;-45
2023/06/04 07:11:45;;;;;;;;;;;;;;;33.57;25.10;96419.13;4959526;28;19969;-47
2023/06/04 07:14:13;;;;;;;;;;;;;;;32.64;26.16;96413.78;4956082;28;20064;-49
2023/06/04 07:16:41;;;;;;;;;;;;;;;32.51;26.08;96411.72;4963072;28;19946;-49
2023/06/04 07:19:09;;;;;;;;;;;;;;;33.07;25.63;96411.19;4958979;28;19957;-48
2023/06/04 07:21:37;;;;;;;;;;;;;;;31.74;26.97;96417.63;4961617;28;19961;-48
2023/06/04 07:24:07;;;;;;;;;;;;;;;32.77;26.29;96410.38;4958722;28;19966;-45
2023/06/04 07:26:35;;;;;;;;;;;;;;;33.03;25.86;96410.13;4960292;28;20366;-48
2023/06/04 07:29:03;;;;;;;;;;;;;;;32.93;25.59;96410.22;4960300;28;20057;-51
2023/06/04 07:31:31;;;;;;;;;;;;;;;33.85;25.02;96399.03;4954342;28;20026;-44
2023/06/04 07:33:59;;;;;;;;;;;;;;;32.97;25.53;96406.66;4957382;28;19965;-52
2023/06/04 07:36:27;;;;;;;;;;;;;;;33.44;25.16;96404.22;4960096;28;20019;-46
2023/06/04 07:38:55;;;;;;;;;;;;;;;32.87;25.49;96411.41;4961171;28;20453;-47
2023/06/04 07:41:25;;;;;;;;;;;;;;;32.78;25.88;96408.47;4959566;28;20443;-51
2023/06/04 07:43:53;;;;;;;;;;;;;;;33.00;25.03;96405.25;4957804;28;20082;-48
2023/06/04 07:46:21;;;;;;;;;;;;;;;32.47;25.86;96418.84;4959308;28;19966;-49
2023/06/04 07:48:49;;;;;;;;;;;;;;;32.65;25.68;96412.66;4962580;28;20080;-50
2023/06/04 07:51:19;;;;;;;;;;;;;;;32.80;25.57;96404.34;4960524;28;19961;-49
2023/06/04 07:53:47;;;;;;;;;;;;;;;32.37;26.05;96408.78;4961830;28;19972;-49
2023/06/04 07:56:15;;;;;;;;;;;;;;;32.43;26.08;96407.69;4963321;28;19976;-49
2023/06/04 07:58:46;;;;;;;;;;;;;;;32.70;26.15;96411.81;4963268;28;19968;-52
2023/06/04 08:01:15;;;;;;;;;;;;;;;32.85;26.23;96409.75;4957505;28;20439;-47
2023/06/04 08:03:43;;;;;;;;;;;;;;;35.14;24.23;96401.38;4964624;28;19965;-49
2023/06/04 08:06:14;;;;;;;;;;;;;;;35.19;23.84;96409.47;4958167;28;19954;-50
2023/06/04 08:08:44;;;;;;;;;;;;;;;34.34;24.78;96414.19;4964487;28;19980;-49
2023/06/04 08:11:12;;;;;;;;;;;;;;;33.94;24.65;96415.63;4967177;28;20037;-51
2023/06/04 08:13:40;;;;;;;;;;;;;;;34.28;25.11;96414.59;4955044;28;19970;-54
2023/06/04 08:16:10;;;;;;;;;;;;;;;34.13;24.71;96410.16;4962063;28;19981;-50
2023/06/04 08:18:38;;;;;;;;;;;;;;;33.47;24.78;96414.56;4960002;28;20026;-50
2023/06/04 08:21:06;;;;;;;;;;;;;;;34.67;24.07;96408.75;4966378;28;19957;-52
2023/06/04 08:23:35;;;;;;;;;;;;;;;35.17;24.26;96407.06;4960294;28;20020;-45
2023/06/04 08:26:03;;;;;;;;;;;;;;;34.16;25.15;96410.38;4965063;28;19973;-47
2023/06/04 08:28:33;;;;;;;;;;;;;;;33.26;25.80;96417.53;4954388;28;20410;-51
2023/06/04 08:31:01;;;;;;;;;;;;;;;33.90;24.88;96406.38;4962839;28;19969;-45
2023/06/04 08:33:30;;;;;;;;;;;;;;;34.59;24.18;96407.53;4964077;28;19960;-47
2023/06/04 08:35:58;;;;;;;;;;;;;;;33.43;25.64;96419.00;4955131;28;20359;-52
2023/06/04 08:38:26;;;;;;;;;;;;;;;33.76;25.54;96412.56;4959374;28;19968;-50
2023/06/04 08:40:54;;;;;;;;;;;;;;;33.53;25.62;96419.72;4960258;28;19973;-46
2023/06/04 08:43:22;;;;;;;;;;;;;;;33.91;24.88;96400.59;4963717;28;19962;-48
2023/06/04 08:45:51;;;;;;;;;;;;;;;34.43;24.94;96406.94;4962149;28;19954;-48
2023/06/04 08:48:19;;;;;;;;;;;;;;;33.87;24.89;96412.44;4965680;28;19958;-51
2023/06/04 08:50:49;;;;;;;;;;;;;;;34.67;24.10;96406.84;4960280;28;19968;-51
2023/06/04 08:53:17;;;;;;;;;;;;;;;35.01;24.31;96408.44;4959093;28;19945;-45
2023/06/04 08:55:45;;;;;;;;;;;;;;;34.68;24.28;96405.72;4958706;28;20414;-46
2023/06/04 08:58:14;;;;;;;;;;;;;;;34.48;24.31;96412.34;4963622;28;19950;-50
2023/06/04 09:00:42;;;;;;;;;;;;;;;33.82;24.85;96421.50;4963743;28;20410;-46
2023/06/04 09:03:11;;;;;;;;;;;;;;;34.94;24.04;96408.00;4960851;28;20004;-54
2023/06/04 09:05:39;;;;;;;;;;;;;;;33.68;23.88;96405.00;4970257;28;19960;-45
2023/06/04 09:08:09;;;;;;;;;;;;;;;34.30;24.00;96404.16;4958658;28;19961;-45
2023/06/04 09:10:37;;;;;;;;;;;;;;;34.02;23.87;96406.75;4961621;28;19961;-47
2023/06/04 09:13:05;;;;;;;;;;;;;;;35.87;23.18;96397.66;4965925;28;19957;-46
2023/06/04 09:15:33;;;;;;;;;;;;;;;34.44;23.54;96411.28;4966461;28;20747;-45
2023/06/04 09:18:01;;;;;;;;;;;;;;;34.30;23.25;96410.44;4964503;28;19965;-51
2023/06/04 09:20:29;;;;;;;;;;;;;;;35.37;22.99;96402.25;4968346;28;19953;-47
2023/06/04 09:22:58;;;;;;;;;;;;;;;34.16;23.86;96398.63;4968052;28;19957;-46
2023/06/04 09:25:28;;;;;;;;;;;;;;;34.36;23.91;96389.28;4961306;28;19961;-52
2023/06/04 09:27:57;;;;;;;;;;;;;;;33.60;24.84;96411.16;4967337;28;19969;-45
2023/06/04 09:30:25;;;;;;;;;;;;;;;36.19;23.17;96400.53;4960380;28;20406;-47
2023/06/04 09:32:54;;;;;;;;;;;;;;;35.72;22.85;96403.50;4963608;28;19964;-53
2023/06/04 09:35:22;;;;;;;;;;;;;;;33.87;24.22;96409.69;4965284;28;19965;-45
2023/06/04 09:37:53;;;;;;;;;;;;;;;35.41;22.89;96404.09;4963321;28;20386;-49
2023/06/04 09:40:22;;;;;;;;;;;;;;;34.48;23.98;96409.59;4962529;28;19984;-46
2023/06/04 09:42:54;;;;;;;;;;;;;;;34.99;23.77;96410.66;4965534;28;20437;-50
2023/06/04 09:45:29;;;;;;;;;;;;;;;34.38;23.76;96412.50;4965907;28;20373;-48
2023/06/04 09:47:57;;;;;;;;;;;;;;;35.34;22.99;96391.91;4964500;28;19962;-55
2023/06/04 09:50:26;;;;;;;;;;;;;;;35.43;23.40;96401.84;4960628;28;19957;-47
2023/06/04 09:52:54;;;;;;;;;;;;;;;35.35;22.79;96393.53;4967345;28;20011;-48
2023/06/04 09:55:22;;;;;;;;;;;;;;;34.93;22.91;96400.91;4965321;28;20413;-50
2023/06/04 09:57:52;;;;;;;;;;;;;;;34.97;22.75;96393.72;4968933;28;20402;-48
2023/06/04 10:00:22;;;;;;;;;;;;;;;35.14;22.94;96385.72;4961376;28;19957;-49
2023/06/04 10:02:51;;;;;;;;;;;;;;;34.62;23.21;96387.75;4964725;28;20430;-48
2023/06/04 10:05:21;;;;;;;;;;;;;;;35.32;23.33;96389.47;4962726;28;19965;-46
2023/06/04 10:07:50;;;;;;;;;;;;;;;36.29;22.57;96386.56;4958832;28;19966;-46
2023/06/04 10:10:20;;;;;;;;;;;;;;;36.63;22.17;96382.47;4957896;28;19969;-50
2023/06/04 10:12:49;;;;;;;;;;;;;;;35.75;22.61;96397.38;4958367;28;19962;-52
2023/06/04 10:15:19;;;;;;;;;;;;;;;35.74;22.60;96392.19;4961239;28;19972;-51
2023/06/04 10:17:47;;;;;;;;;;;;;;;35.44;23.49;96388.94;4955855;28;19953;-46
2023/06/04 10:20:16;;;;;;;;;;;;;;;35.98;22.22;96389.19;4967545;28;19958;-47
2023/06/04 10:22:44;;;;;;;;;;;;;;;36.61;22.44;96388.25;4952979;28;20005;-50
2023/06/04 10:25:12;;;;;;;;;;;;;;;35.54;22.30;96388.75;4959211;28;19961;-52
2023/06/04 10:27:40;;;;;;;;;;;;;;;34.14;23.53;96393.44;4957952;28;19954;-48
2023/06/04 10:30:09;;;;;;;;;;;;;;;34.82;22.79;96399.44;4963453;28;19961;-46
2023/06/04 10:32:39;;;;;;;;;;;;;;;35.64;22.30;96394.03;4960244;28;19961;-48
2023/06/04 10:35:08;;;;;;;;;;;;;;;37.92;21.06;96384.09;4962771;28;20464;-51
2023/06/04 10:37:36;;;;;;;;;;;;;;;35.07;22.64;96393.53;4961559;28;19961;-45
2023/06/04 10:40:05;;;;;;;;;;;;;;;36.48;21.92;96394.59;4954441;28;19968;-51
2023/06/04 10:42:38;;;;;;;;;;;;;;;35.56;22.78;96393.97;4960002;28;19966;-50
2023/06/04 10:45:07;;;;;;;;;;;;;;;36.17;22.25;96389.88;4954283;28;19961;-50
2023/06/04 10:47:37;;;;;;;;;;;;;;;36.42;22.32;96396.69;4959378;28;19957;-44
2023/06/04 10:50:10;;;;;;;;;;;;;;;35.58;22.79;96391.72;4953844;28;19957;-43
2023/06/04 10:52:39;;;;;;;;;;;;;;;35.93;22.33;96390.13;4959670;28;19966;-52
2023/06/04 10:55:08;;;;;;;;;;;;;;;37.51;21.11;96393.53;4963890;28;19972;-50
2023/06/04 10:57:36;;;;;;;;;;;;;;;36.09;22.30;96382.38;4961403;28;19972;-47
2023/06/04 11:00:09;;;;;;;;;;;;;;;36.13;22.41;96378.72;4962466;28;20414;-55
2023/06/04 11:02:37;;;;;;;;;;;;;;;35.87;22.68;96377.63;4966249;28;19965;-49
2023/06/04 11:05:08;;;;;;;;;;;;;;;36.47;22.13;96376.50;4961320;28;20081;-44
2023/06/04 11:07:44;;;;;;;;;;;;;;;37.22;21.86;96370.13;4966826;28;19983;-50
2023/06/04 11:10:13;;;;;;;;;;;;;;;35.71;22.17;96377.16;4962063;28;20517;-49
2023/06/04 11:12:44;;;;;;;;;;;;;;;37.82;20.61;96379.72;4958731;28;19958;-49
2023/06/04 11:15:12;;;;;;;;;;;;;;;38.80;19.77;96366.38;4963294;28;19965;-50
2023/06/04 11:17:50;;;;;;;;;;;;;;;37.33;21.12;96370.66;4963294;28;19957;-48
2023/06/04 11:20:18;;;;;;;;;;;;;;;36.80;22.03;96375.13;4961493;28;19968;-52
2023/06/04 11:22:55;;;;;;;;;;;;;;;36.65;23.01;96371.94;4959366;28;19965;-46
2023/06/04 11:25:24;;;;;;;;;;;;;;;37.78;21.86;96370.44;4959698;28;19976;-52
2023/06/04 11:27:53;;;;;;;;;;;;;;;38.08;21.17;96363.22;4961668;28;20402;-45
2023/06/04 11:30:21;;;;;;;;;;;;;;;36.17;23.50;96359.66;4957956;28;19949;-43
2023/06/04 11:32:49;;;;;;;;;;;;;;;36.25;22.61;96380.06;4960207;28;19964;-46
2023/06/04 11:35:17;;;;;;;;;;;;;;;36.54;22.20;96374.16;4960315;28;19966;-45
2023/06/04 11:37:55;;;;;;;;;;;;;;;37.73;21.32;96371.41;4964333;28;19962;-47
2023/06/04 11:40:23;;;;;;;;;;;;;;;37.23;21.53;96379.19;4966773;28;20382;-46
2023/06/04 11:42:51;;;;;;;;;;;;;;;38.34;20.81;96365.16;4962323;28;19971;-49
2023/06/04 11:45:20;;;;;;;;;;;;;;;38.03;20.63;96365.31;4960513;28;20066;-49
2023/06/04 11:47:48;;;;;;;;;;;;;;;36.24;22.50;96361.97;4967905;28;19969;-49
2023/06/04 11:50:16;;;;;;;;;;;;;;;37.28;21.64;96368.06;4961552;28;19958;-46
2023/06/04 11:52:44;;;;;;;;;;;;;;;37.74;21.60;96361.22;4960972;28;19977;-47
2023/06/04 11:55:14;;;;;;;;;;;;;;;37.73;21.48;96362.34;4956765;28;19966;-46
2023/06/04 11:57:42;;;;;;;;;;;;;;;38.82;20.28;96353.91;4961165;28;20446;-49
2023/06/04 12:00:10;;;;;;;;;;;;;;;37.56;21.61;96356.81;4956542;28;19957;-46
2023/06/04 12:02:39;;;;;;;;;;;;;;;38.88;20.56;96349.00;4955579;28;19965;-49
2023/06/04 12:05:13;;;;;;;;;;;;;;;39.36;19.51;96348.63;4965730;28;19972;-46
2023/06/04 12:07:42;;;;;;;;;;;;;;;38.37;20.44;96346.06;4964408;28;19965;-46
2023/06/04 12:10:11;;;;;;;;;;;;;;;37.73;20.63;96346.66;4962935;28;19980;-47
2023/06/04 12:12:41;;;;;;;;;;;;;;;37.05;20.98;96346.13;4966140;28;20429;-48
2023/06/04 12:15:10;;;;;;;;;;;;;;;38.32;19.97;96339.84;4966187;28;20004;-51
2023/06/04 12:17:38;;;;;;;;;;;;;;;38.03;20.25;96340.53;4956511;28;19993;-47
2023/06/04 12:20:07;;;;;;;;;;;;;;;37.93;20.46;96341.69;4963681;28;19961;-46
2023/06/04 12:22:45;;;;;;;;;;;;;;;38.86;20.06;96343.03;4960876;28;19985;-53
2023/06/04 12:25:13;;;;;;;;;;;;;;;38.55;20.10;96338.53;4962004;28;19965;-51
2023/06/04 12:27:49;;;;;;;;;;;;;;;39.44;19.00;96330.44;4962406;28;20025;-49
2023/06/04 12:30:17;;;;;;;;;;;;;;;38.04;19.69;96342.97;4956434;28;19968;-49
2023/06/04 12:32:45;;;;;;;;;;;;;;;39.00;18.98;96337.28;4961758;28;19967;-50
2023/06/04 12:35:14;;;;;;;;;;;;;;;38.25;19.39;96340.34;4968341;28;19961;-53
2023/06/04 12:37:42;;;;;;;;;;;;;;;40.19;18.43;96336.06;4961776;28;19965;-50
2023/06/04 12:40:10;;;;;;;;;;;;;;;40.75;17.46;96333.72;4966053;28;19968;-54
2023/06/04 12:42:38;;;;;;;;;;;;;;;39.05;19.28;96337.91;4954846;28;19965;-56
2023/06/04 12:45:08;;;;;;;;;;;;;;;39.81;18.97;96338.94;4961063;28;20008;-50
2023/06/04 12:47:36;;;;;;;;;;;;;;;39.27;19.45;96319.50;4962011;28;19969;-49
2023/06/04 12:50:05;;;;;;;;;;;;;;;36.92;20.45;96337.97;4963065;28;20498;-49
2023/06/04 12:52:33;;;;;;;;;;;;;;;37.64;20.03;96326.56;4962926;28;19964;-56
2023/06/04 12:55:01;;;;;;;;;;;;;;;39.60;18.92;96319.59;4957584;28;20399;-47